Time;durP1;ratioP1;P1;durP2;ratioP2;P2;SDS_P1;SDS_P2;PMS_P1;PMS_P2;Temp;Humidity;BMP_temperature;BMP_pressure;BME280_temperature;BME280_humidity;BME280_pressure;Samples;Min_cycle;Max_cycle;Signal;HPM_P1;HPM_P2
2023/03/31 00:01:47;;;;;;;10.30;2.50;;;;;;;9.21;91.83;100349.81;4981853;28;20049;-75
2023/03/31 00:04:12;;;;;;;8.05;2.70;;;;;;;9.22;91.99;100337.59;4973245;28;20084;-76
2023/03/31 00:06:41;;;;;;;7.60;2.40;;;;;;;9.25;91.48;100343.66;4985529;28;20038;-71
2023/03/31 00:09:13;;;;;;;12.75;2.72;;;;;;;9.26;92.28;100331.44;4974539;28;20066;-71
2023/03/31 00:11:41;;;;;;;11.20;2.40;;;;;;;9.28;91.84;100325.31;5014686;28;20038;-71
2023/03/31 00:14:08;;;;;;;7.72;2.33;;;;;;;9.28;92.36;100325.31;4977398;28;20162;-71
2023/03/31 00:16:35;;;;;;;14.32;2.92;;;;;;;9.29;92.19;100321.78;4989646;28;20039;-71
2023/03/31 00:19:00;;;;;;;8.80;2.90;;;;;;;9.29;92.29;100307.84;5009046;28;20051;-71
2023/03/31 00:21:33;;;;;;;8.90;2.78;;;;;;;9.28;92.79;100293.94;5009153;28;20045;-72
2023/03/31 00:24:01;;;;;;;10.80;2.65;;;;;;;9.28;92.66;100293.94;4993892;28;20359;-71
2023/03/31 00:26:28;;;;;;;7.10;2.38;;;;;;;9.28;92.91;100280.84;4999820;28;20037;-72
2023/03/31 00:28:56;;;;;;;10.50;2.53;;;;;;;9.27;93.33;100268.66;5012182;28;20041;-71
2023/03/31 00:31:22;;;;;;;9.43;2.35;;;;;;;9.25;93.71;100264.34;5008009;28;20033;-77
2023/03/31 00:33:48;;;;;;;11.27;3.00;;;;;;;9.21;94.06;100260.94;4979153;28;20088;-76
2023/03/31 00:36:19;;;;;;;10.48;2.30;;;;;;;9.18;94.40;100245.28;4990666;28;20128;-76
2023/03/31 00:38:48;;;;;;;8.05;2.22;;;;;;;9.20;94.55;100253.97;4983859;28;20081;-76
2023/03/31 00:41:14;;;;;;;8.52;2.33;;;;;;;9.17;94.67;100251.41;4971530;28;20388;-77
2023/03/31 00:43:41;;;;;;;9.13;2.50;;;;;;;9.16;94.49;100247.03;4979127;28;20062;-76
2023/03/31 00:46:22;;;;;;;10.57;2.63;;;;;;;9.16;94.37;100231.38;5006782;28;20494;-76
2023/03/31 00:48:51;;;;;;;11.13;2.70;;;;;;;9.12;94.47;100229.69;5013219;28;20088;-76
2023/03/31 00:51:20;;;;;;;12.80;2.83;;;;;;;9.08;94.54;100218.44;5006959;28;20057;-75
2023/03/31 00:53:54;;;;;;;8.35;2.10;;;;;;;9.06;95.12;100220.19;4995132;28;20437;-75
2023/03/31 00:56:20;;;;;;;7.22;2.13;;;;;;;9.03;95.03;100207.16;5010220;28;20091;-76
2023/03/31 00:58:46;;;;;;;10.23;2.40;;;;;;;9.02;95.05;100214.16;4990001;28;20474;-75
2023/03/31 01:01:18;;;;;;;13.23;2.97;;;;;;;8.99;95.61;100208.97;4970025;28;20042;-76
2023/03/31 01:03:46;;;;;;;8.07;2.60;;;;;;;8.98;94.94;100195.94;5008688;28;20128;-71
2023/03/31 01:06:18;;;;;;;9.52;2.17;;;;;;;9.01;95.18;100206.34;4983548;28;20110;-71
2023/03/31 01:08:48;;;;;;;9.13;2.10;;;;;;;9.00;95.36;100197.63;5010260;28;20099;-76
2023/03/31 01:11:18;;;;;;;8.60;2.40;;;;;;;9.00;95.46;100202.00;5004636;28;20033;-75
2023/03/31 01:13:48;;;;;;;8.88;2.30;;;;;;;9.01;95.29;100190.66;5008917;28;20087;-76
2023/03/31 01:16:14;;;;;;;12.30;2.78;;;;;;;9.01;95.34;100185.44;4963137;28;20066;-72
2023/03/31 01:18:45;;;;;;;11.82;2.17;;;;;;;9.00;95.60;100179.31;4999888;28;20047;-71
2023/03/31 01:21:36;;;;;;;13.52;2.55;;;;;;;9.04;95.33;100179.28;4999898;28;20041;-71
2023/03/31 01:24:20;;;;;;;8.65;2.13;;;;;;;9.09;95.30;100167.00;5016550;28;20469;-72
2023/03/31 01:26:55;;;;;;;11.07;2.78;;;;;;;9.08;95.52;100165.28;5012372;28;20029;-71
2023/03/31 01:30:10;;;;;;;8.00;2.10;;;;;;;9.09;95.77;100159.16;5008495;28;20050;-72
2023/03/31 01:33:05;;;;;;;8.30;2.00;;;;;;;9.11;95.72;100157.41;5008288;28;20128;-71
2023/03/31 01:35:57;;;;;;;12.27;2.47;;;;;;;9.11;95.36;100144.34;5015543;28;20034;-71
2023/03/31 01:38:50;;;;;;;10.15;2.50;;;;;;;9.12;95.66;100146.03;5007735;28;20033;-71
2023/03/31 01:41:27;;;;;;;9.32;2.50;;;;;;;9.11;95.67;100139.97;5010652;28;20392;-71
2023/03/31 01:44:19;;;;;;;9.27;2.60;;;;;;;9.12;95.96;100126.00;5007312;28;20134;-74
2023/03/31 01:46:54;;;;;;;13.35;2.88;;;;;;;9.10;96.29;100122.53;5015228;28;20175;-75
2023/03/31 01:49:29;;;;;;;15.07;2.90;;;;;;;9.10;96.19;100125.16;5009986;28;20044;-75
2023/03/31 01:52:20;;;;;;;11.27;2.50;;;;;;;9.11;96.65;100133.88;5011847;28;20034;-75
2023/03/31 01:54:52;;;;;;;15.73;2.70;;;;;;;9.12;96.33;100119.91;5006598;28;20392;-75
2023/03/31 01:57:28;;;;;;;10.55;2.55;;;;;;;9.13;96.55;100105.94;5011957;28;20517;-76
2023/03/31 02:00:19;;;;;;;13.40;3.00;;;;;;;9.16;96.60;100103.28;5013077;28;20080;-75
2023/03/31 02:02:52;;;;;;;8.07;2.03;;;;;;;9.20;96.01;100097.13;5010885;28;20389;-75
2023/03/31 02:05:21;;;;;;;14.00;2.58;;;;;;;9.22;95.74;100081.41;4996517;28;20022;-75
2023/03/31 02:07:54;;;;;;;13.25;2.53;;;;;;;9.26;94.35;100083.06;4990635;28;20030;-75
2023/03/31 02:10:22;;;;;;;9.93;1.88;;;;;;;9.28;94.32;100071.69;5008626;28;20037;-76
2023/03/31 02:12:50;;;;;;;14.02;2.85;;;;;;;9.29;94.15;100059.47;5000032;28;20183;-75
2023/03/31 02:15:22;;;;;;;12.48;2.33;;;;;;;9.31;94.22;100053.34;5015454;28;20032;-76
2023/03/31 02:17:53;;;;;;;12.88;3.08;;;;;;;9.32;94.36;100043.72;5016162;28;20482;-77
2023/03/31 02:20:21;;;;;;;10.57;2.55;;;;;;;9.33;94.87;100042.84;5027601;28;20025;-76
2023/03/31 02:22:52;;;;;;;10.50;2.42;;;;;;;9.29;95.45;100028.94;5008344;28;20052;-76
2023/03/31 02:25:23;;;;;;;16.20;3.08;;;;;;;9.28;95.81;100015.91;5015697;28;20045;-76
2023/03/31 02:27:54;;;;;;;15.02;2.72;;;;;;;9.25;96.68;100005.53;5176887;23;20045;-75
2023/03/31 04:09:15;;;;;;;12.55;2.75;;;;;;;8.91;98.47;99745.75;2418681;26;20070;-70
2023/03/31 04:11:40;;;;;;;13.82;2.92;;;;;;;8.91;98.67;99753.59;5011787;28;20430;-73
2023/03/31 04:14:06;;;;;;;11.93;2.55;;;;;;;8.91;98.66;99750.13;4979039;28;20034;-75
2023/03/31 04:16:33;;;;;;;14.65;2.85;;;;;;;8.89;98.92;99750.13;4978511;28;20038;-74
2023/03/31 04:19:02;;;;;;;12.27;3.08;;;;;;;8.89;98.99;99752.75;4979138;28;20516;-74
2023/03/31 04:21:29;;;;;;;11.27;2.90;;;;;;;8.86;99.39;99739.75;4979078;28;20049;-73
2023/03/31 04:24:00;;;;;;;18.83;3.25;;;;;;;8.87;98.86;99731.03;4978377;28;20104;-75
2023/03/31 04:26:37;;;;;;;13.52;3.00;;;;;;;8.85;99.09;99717.16;4963641;28;20034;-75
2023/03/31 04:29:06;;;;;;;15.13;3.05;;;;;;;8.85;99.06;99719.78;4979026;28;20042;-75
2023/03/31 04:31:32;;;;;;;16.02;2.55;;;;;;;8.83;99.36;99703.25;4978443;28;20030;-76
2023/03/31 04:34:01;;;;;;;16.30;3.65;;;;;;;8.80;98.97;99685.91;4962990;28;20046;-75
2023/03/31 04:36:28;;;;;;;16.55;3.13;;;;;;;8.76;99.21;99691.22;4978808;28;20081;-75
2023/03/31 04:38:53;;;;;;;10.05;3.28;;;;;;;8.76;99.37;99686.84;4993703;28;20132;-74
2023/03/31 04:41:23;;;;;;;14.38;2.90;;;;;;;8.76;99.68;99686.00;4992057;28;20038;-75
2023/03/31 04:43:49;;;;;;;18.67;3.65;;;;;;;8.74;99.28;99670.38;4975008;28;20046;-71
2023/03/31 04:46:15;;;;;;;12.45;2.58;;;;;;;8.74;99.62;99665.16;4962262;28;20030;-70
2023/03/31 04:48:40;;;;;;;9.73;2.42;;;;;;;8.73;99.13;99663.44;4994754;28;20046;-71
2023/03/31 04:51:07;;;;;;;13.30;3.03;;;;;;;8.71;99.99;99643.47;4962206;28;20431;-71
2023/03/31 04:53:33;;;;;;;9.45;2.40;;;;;;;8.72;99.80;99645.19;4961610;28;20181;-70
2023/03/31 04:55:58;;;;;;;14.18;2.83;;;;;;;8.69;99.95;99640.03;4995120;28;20443;-74
2023/03/31 04:58:24;;;;;;;14.65;3.05;;;;;;;8.69;99.94;99634.81;4960867;28;20049;-71
2023/03/31 05:00:50;;;;;;;14.48;3.25;;;;;;;8.70;99.58;99631.31;4946256;28;20041;-71
2023/03/31 05:03:16;;;;;;;13.63;3.05;;;;;;;8.69;99.86;99633.03;4994200;28;20050;-70
2023/03/31 05:05:41;;;;;;;14.55;3.22;;;;;;;8.67;99.62;99627.84;4978743;28;20039;-71
2023/03/31 05:08:07;;;;;;;14.60;2.85;;;;;;;8.66;99.88;99620.94;4962062;28;20073;-71
2023/03/31 05:10:32;;;;;;;13.23;2.85;;;;;;;8.65;99.84;99619.22;4977716;28;20411;-71
2023/03/31 05:12:58;;;;;;;11.45;3.00;;;;;;;8.64;99.57;99611.41;4960841;28;20034;-71
2023/03/31 05:15:23;;;;;;;11.85;2.70;;;;;;;8.65;99.72;99615.75;4993955;28;20125;-71
2023/03/31 05:17:51;;;;;;;9.27;2.60;;;;;;;8.63;99.64;99620.13;4992680;28;20049;-70
2023/03/31 05:20:18;;;;;;;10.60;2.70;;;;;;;8.63;99.28;99599.25;4991748;28;20034;-71
2023/03/31 05:22:44;;;;;;;9.05;2.83;;;;;;;8.64;99.16;99585.31;4960974;28;20097;-71
2023/03/31 05:25:13;;;;;;;13.13;2.38;;;;;;;8.63;99.06;99581.84;4976875;28;20093;-71
2023/03/31 05:27:39;;;;;;;8.52;2.15;;;;;;;8.67;97.97;99585.22;4975628;28;20045;-70
2023/03/31 05:30:05;;;;;;;11.85;3.22;;;;;;;8.69;98.00;99572.13;4991709;28;20034;-70
2023/03/31 05:32:30;;;;;;;11.32;2.70;;;;;;;8.70;97.78;99579.91;4977810;28;20042;-70
2023/03/31 05:34:56;;;;;;;10.38;2.25;;;;;;;8.69;97.50;99566.91;4960110;28;20509;-69
2023/03/31 05:37:25;;;;;;;8.27;2.20;;;;;;;8.71;97.19;99568.59;4944756;28;20081;-72
2023/03/31 05:39:53;;;;;;;10.45;2.20;;;;;;;8.70;97.67;99566.03;4997188;28;20469;-71
2023/03/31 05:42:19;;;;;;;5.72;2.10;;;;;;;8.69;98.14;99556.47;4993256;28;20486;-70
2023/03/31 05:44:44;;;;;;;6.07;1.95;;;;;;;8.69;97.60;99552.09;4945341;28;20088;-70
2023/03/31 05:47:11;;;;;;;9.10;1.90;;;;;;;8.70;97.41;99553.81;4961224;28;20038;-70
2023/03/31 05:49:37;;;;;;;6.93;1.60;;;;;;;8.71;97.42;99545.09;5001271;28;20042;-70
2023/03/31 05:52:05;;;;;;;10.13;1.80;;;;;;;8.72;97.07;99551.16;4965394;28;20081;-70
2023/03/31 05:54:32;;;;;;;10.07;2.60;;;;;;;8.71;97.15;99544.25;4946010;28;20054;-70
2023/03/31 05:56:57;;;;;;;10.50;1.92;;;;;;;8.70;96.62;99538.13;4960325;28;20046;-70
2023/03/31 05:59:26;;;;;;;10.65;2.05;;;;;;;8.73;96.82;99547.66;4993665;28;20184;-71
2023/03/31 06:01:51;;;;;;;5.40;1.45;;;;;;;8.72;97.40;99551.16;4993859;28;20494;-70
2023/03/31 06:04:17;;;;;;;8.52;2.05;;;;;;;8.70;97.39;99539.91;4945041;28;20120;-70
2023/03/31 06:06:43;;;;;;;7.60;2.15;;;;;;;8.69;98.09;99535.56;4977515;28;20524;-70
2023/03/31 06:09:10;;;;;;;9.25;2.47;;;;;;;8.66;98.52;99547.81;4971409;28;20039;-70
2023/03/31 06:11:38;;;;;;;8.95;2.10;;;;;;;8.66;98.43;99541.72;4941894;28;20049;-70
2023/03/31 06:14:04;;;;;;;7.50;1.90;;;;;;;8.65;99.33;99537.41;4925904;28;20054;-75
2023/03/31 06:16:29;;;;;;;9.65;2.53;;;;;;;8.62;99.06;99525.28;4925620;28;20043;-75
2023/03/31 06:18:55;;;;;;;9.65;2.30;;;;;;;8.62;99.60;99530.50;4957755;28;20058;-75
2023/03/31 06:21:21;;;;;;;9.10;2.13;;;;;;;8.58;99.50;99534.09;4973382;28;20101;-75
2023/03/31 06:23:47;;;;;;;10.07;2.22;;;;;;;8.59;100.00;99529.72;4955706;28;20471;-75
2023/03/31 06:26:15;;;;;;;11.93;2.50;;;;;;;8.58;100.00;99513.19;4957050;28;20031;-74
2023/03/31 06:28:41;;;;;;;10.13;2.38;;;;;;;8.57;99.86;99516.69;4957656;28;20058;-76
2023/03/31 06:31:13;;;;;;;8.70;2.40;;;;;;;8.58;100.00;99502.75;4979222;28;20045;-75
2023/03/31 06:33:40;;;;;;;11.52;2.40;;;;;;;8.57;100.00;99495.81;4966493;28;20142;-72
2023/03/31 06:36:06;;;;;;;10.30;2.30;;;;;;;8.58;100.00;99488.84;4957798;28;20442;-75
2023/03/31 06:38:32;;;;;;;8.75;2.47;;;;;;;8.64;100.00;99494.75;4961034;28;20062;-76
2023/03/31 06:40:58;;;;;;;8.15;2.28;;;;;;;8.64;100.00;99481.69;4976403;28;20522;-75
2023/03/31 06:43:24;;;;;;;11.55;2.47;;;;;;;8.65;100.00;99465.13;4949135;28;20177;-74
2023/03/31 06:45:52;;;;;;;12.02;2.72;;;;;;;8.70;99.87;99464.16;4963455;28;20070;-73
2023/03/31 06:48:18;;;;;;;10.15;2.50;;;;;;;8.72;100.00;99452.78;4956654;28;20054;-75
2023/03/31 06:50:43;;;;;;;8.52;2.53;;;;;;;8.74;100.00;99450.13;4957192;28;20065;-74
2023/03/31 06:53:10;;;;;;;10.93;2.72;;;;;;;8.76;100.00;99490.97;4957593;28;20070;-75
2023/03/31 06:55:36;;;;;;;8.18;2.30;;;;;;;8.76;100.00;99474.44;4977776;28;20035;-75
2023/03/31 06:58:03;;;;;;;9.35;2.45;;;;;;;8.78;100.00;99488.34;4973824;28;20113;-75
2023/03/31 07:00:29;;;;;;;13.85;2.95;;;;;;;8.77;100.00;99487.47;4976297;28;20038;-75
2023/03/31 07:02:54;;;;;;;7.88;2.60;;;;;;;8.78;100.00;99491.78;4992436;28;20046;-76
2023/03/31 07:05:26;;;;;;;6.68;2.40;;;;;;;8.79;100.00;99483.06;4968465;28;20039;-76
2023/03/31 07:07:55;;;;;;;7.88;2.22;;;;;;;8.83;100.00;99484.72;4987389;28;20093;-75
2023/03/31 07:10:22;;;;;;;7.23;2.47;;;;;;;8.86;99.92;99473.28;4967077;28;20355;-76
2023/03/31 07:12:47;;;;;;;7.75;2.42;;;;;;;8.89;100.00;99470.59;4971848;28;20757;-75
2023/03/31 07:15:13;;;;;;;13.40;3.42;;;;;;;8.87;100.00;99476.78;4994515;28;20049;-75
2023/03/31 07:17:41;;;;;;;12.32;3.28;;;;;;;8.85;100.00;99479.44;5010797;28;20120;-75
2023/03/31 07:20:19;;;;;;;12.75;3.03;;;;;;;8.87;100.00;99469.78;4941616;28;20089;-75
2023/03/31 07:22:46;;;;;;;13.27;3.10;;;;;;;8.89;100.00;99480.19;4976818;28;20031;-76
2023/03/31 07:25:17;;;;;;;11.32;3.03;;;;;;;8.91;100.00;99475.81;4959801;28;20137;-76
2023/03/31 07:27:43;;;;;;;13.38;3.17;;;;;;;8.96;100.00;99461.69;4960476;28;20038;-76
2023/03/31 07:30:12;;;;;;;12.65;3.65;;;;;;;9.03;100.00;99470.22;4999173;28;20444;-76
2023/03/31 07:32:39;;;;;;;11.40;4.13;;;;;;;9.07;100.00;99463.19;4983936;28;20030;-75
2023/03/31 07:35:06;;;;;;;14.32;3.90;;;;;;;9.13;100.00;99455.16;4995368;28;20038;-76
2023/03/31 07:37:40;;;;;;;14.13;3.28;;;;;;;9.17;100.00;99448.94;4970425;28;20049;-76
2023/03/31 07:40:06;;;;;;;14.35;3.88;;;;;;;9.19;99.99;99436.69;4995730;28;20505;-76
2023/03/31 07:42:33;;;;;;;15.65;3.40;;;;;;;9.18;99.33;99446.28;5023902;28;20065;-75
2023/03/31 07:44:58;;;;;;;10.38;2.40;;;;;;;9.20;97.11;99433.19;4969738;28;20402;-75
2023/03/31 07:47:24;;;;;;;10.40;2.55;;;;;;;9.24;97.62;99434.81;4946522;28;20038;-76
2023/03/31 07:49:50;;;;;;;9.70;2.55;;;;;;;9.28;97.10;99433.81;4987459;28;20038;-77
2023/03/31 07:52:18;;;;;;;12.10;2.55;;;;;;;9.33;97.11;99436.28;4993111;28;20034;-77
2023/03/31 07:54:46;;;;;;;9.05;2.15;;;;;;;9.38;96.81;99431.81;4991354;28;20045;-77
2023/03/31 07:57:12;;;;;;;6.43;2.25;;;;;;;9.42;96.64;99438.63;4976188;28;20049;-77
2023/03/31 07:59:38;;;;;;;10.85;2.67;;;;;;;9.45;96.37;99432.47;5006708;28;20046;-76
2023/03/31 08:02:04;;;;;;;10.70;2.45;;;;;;;9.50;96.45;99425.34;4975531;28;20117;-77
2023/03/31 08:04:29;;;;;;;13.32;2.42;;;;;;;9.54;96.04;99430.44;4991819;28;20504;-76
2023/03/31 08:06:55;;;;;;;12.30;2.58;;;;;;;9.60;95.85;99421.53;4981183;28;20038;-77
2023/03/31 08:09:21;;;;;;;10.10;2.80;;;;;;;9.75;96.49;99428.06;4991365;28;20052;-76
2023/03/31 08:11:47;;;;;;;13.00;3.53;;;;;;;9.85;96.80;99416.38;5000209;28;20046;-77
2023/03/31 08:14:13;;;;;;;17.98;3.92;;;;;;;9.95;96.32;99413.50;4975382;28;20062;-77
2023/03/31 08:16:38;;;;;;;16.63;4.50;;;;;;;9.99;96.11;99420.34;4943345;28;20073;-76
2023/03/31 08:19:04;;;;;;;15.32;4.60;;;;;;;10.04;96.16;99418.41;4981749;28;20038;-77
2023/03/31 08:21:30;;;;;;;17.27;4.82;;;;;;;10.05;96.08;99417.53;4945945;28;20030;-77
2023/03/31 08:23:56;;;;;;;11.95;4.60;;;;;;;10.07;96.27;99420.97;4979049;28;20030;-76
2023/03/31 08:26:24;;;;;;;14.15;4.88;;;;;;;10.12;96.49;99415.56;4995400;28;20038;-77
2023/03/31 08:28:50;;;;;;;19.25;4.65;;;;;;;10.11;95.73;99412.06;4972759;28;20453;-77
2023/03/31 08:31:17;;;;;;;14.63;4.25;;;;;;;10.13;96.30;99410.28;5022118;28;20441;-77
2023/03/31 08:33:44;;;;;;;11.98;3.95;;;;;;;10.14;95.86;99406.78;5000855;28;20050;-77
2023/03/31 08:36:09;;;;;;;16.02;3.75;;;;;;;10.18;95.61;99412.75;4984672;28;20038;-77
2023/03/31 08:38:36;;;;;;;14.48;3.67;;;;;;;10.28;96.37;99403.66;4954073;28;20073;-77
2023/03/31 08:41:04;;;;;;;18.00;3.80;;;;;;;10.31;95.37;99408.81;4995073;28;20081;-77
2023/03/31 08:43:33;;;;;;;14.55;3.70;;;;;;;10.35;95.38;99410.44;4992014;28;20042;-77
2023/03/31 08:46:00;;;;;;;20.02;3.95;;;;;;;10.40;95.42;99403.31;4978802;28;20426;-77
2023/03/31 08:48:31;;;;;;;18.08;4.35;;;;;;;10.43;95.18;99409.31;4962977;28;20026;-77
2023/03/31 08:51:04;;;;;;;15.45;4.13;;;;;;;10.50;95.68;99408.22;4994809;28;20188;-78
2023/03/31 08:53:34;;;;;;;18.45;4.18;;;;;;;10.55;95.49;99401.06;4993801;28;20034;-78
2023/03/31 08:56:00;;;;;;;19.30;4.05;;;;;;;10.61;95.76;99406.06;4993355;28;20137;-78
2023/03/31 08:58:45;;;;;;;13.15;3.75;;;;;;;10.68;95.90;99407.56;4992087;28;20062;-78
2023/03/31 09:01:25;;;;;;;14.75;4.28;;;;;;;10.68;95.24;99404.94;4997939;28;20129;-77
2023/03/31 09:04:22;;;;;;;18.38;4.32;;;;;;;10.70;94.92;99400.53;4996919;28;20100;-78
2023/03/31 09:06:56;;;;;;;15.10;3.70;;;;;;;10.79;94.20;99406.34;4986738;28;20517;-78
2023/03/31 09:09:46;;;;;;;14.90;3.92;;;;;;;10.87;93.86;99396.44;4981076;28;20050;-78
2023/03/31 09:12:38;;;;;;;19.00;4.10;;;;;;;10.97;93.24;99400.44;4991825;28;20367;-78
2023/03/31 09:15:11;;;;;;;20.50;3.97;;;;;;;11.01;91.70;99401.19;4960493;28;20027;-79
2023/03/31 09:17:48;;;;;;;17.98;4.15;;;;;;;11.07;92.52;99387.84;4994563;28;20482;-78
2023/03/31 09:20:27;;;;;;;14.68;3.75;;;;;;;11.17;89.65;99399.69;4962686;28;20513;-78
2023/03/31 09:23:05;;;;;;;15.00;3.67;;;;;;;11.24;89.01;99379.34;4998263;28;20038;-77
2023/03/31 09:25:34;;;;;;;13.10;3.70;;;;;;;11.36;89.02;99384.13;4977124;28;20030;-78
2023/03/31 09:28:03;;;;;;;15.05;3.38;;;;;;;11.51;88.00;99374.81;4978074;28;20049;-78
2023/03/31 09:30:30;;;;;;;15.52;3.45;;;;;;;11.65;87.58;99368.16;4978050;28;20081;-77
2023/03/31 09:33:16;;;;;;;18.40;3.92;;;;;;;11.77;85.63;99358.03;4976956;28;20034;-77
2023/03/31 09:35:41;;;;;;;17.40;3.33;;;;;;;11.88;85.66;99364.59;4977928;28;20117;-76
2023/03/31 09:38:12;;;;;;;13.88;2.95;;;;;;;11.88;83.72;99360.22;4993691;28;20486;-77
2023/03/31 09:40:39;;;;;;;15.15;3.20;;;;;;;11.88;82.41;99361.97;4976828;28;20394;-78
2023/03/31 09:43:07;;;;;;;18.20;3.42;;;;;;;11.86;81.16;99366.47;4993301;28;20050;-77
2023/03/31 09:45:33;;;;;;;13.65;3.20;;;;;;;11.81;79.59;99357.91;4993839;28;20069;-77
2023/03/31 09:48:21;;;;;;;14.95;2.90;;;;;;;11.77;80.67;99352.78;4977726;28;20030;-78
2023/03/31 09:50:56;;;;;;;14.45;3.17;;;;;;;11.76;81.41;99364.19;4977536;28;20471;-77
2023/03/31 09:53:39;;;;;;;17.25;3.28;;;;;;;11.80;80.68;99357.06;4977531;28;20734;-77
2023/03/31 09:56:13;;;;;;;15.95;3.67;;;;;;;11.83;79.28;99353.47;4977461;28;20469;-78
2023/03/31 09:58:44;;;;;;;17.05;3.05;;;;;;;11.90;81.83;99342.63;4992645;28;20042;-76
2023/03/31 10:01:13;;;;;;;13.98;3.25;;;;;;;12.00;79.59;99348.41;4977379;28;20045;-77
2023/03/31 10:04:07;;;;;;;12.80;2.95;;;;;;;12.09;79.76;99348.00;4977408;28;20057;-77
2023/03/31 10:06:40;;;;;;;13.07;2.95;;;;;;;12.11;77.83;99359.31;4990715;28;20060;-78
2023/03/31 10:09:09;;;;;;;14.75;3.13;;;;;;;12.13;76.67;99341.72;4996558;28;20049;-77
2023/03/31 10:11:36;;;;;;;16.25;3.75;;;;;;;12.30;79.11;99346.25;4996442;28;20034;-78
2023/03/31 10:14:05;;;;;;;15.98;2.90;;;;;;;12.45;79.23;99349.13;4980714;28;20386;-79
2023/03/31 10:16:32;;;;;;;12.88;2.88;;;;;;;12.62;78.43;99344.00;4996389;28;20069;-77
2023/03/31 10:19:22;;;;;;;12.88;2.65;;;;;;;12.67;77.37;99341.19;4995672;28;20125;-77
2023/03/31 10:21:58;;;;;;;13.48;2.90;;;;;;;12.60;74.03;99332.69;4972750;28;20133;-77
2023/03/31 10:24:26;;;;;;;11.48;2.40;;;;;;;12.48;73.94;99331.47;4976369;28;20387;-77
2023/03/31 10:26:54;;;;;;;10.40;3.00;;;;;;;12.43;75.53;99329.97;4992580;28;20030;-77
2023/03/31 10:29:38;;;;;;;13.30;2.63;;;;;;;12.37;75.82;99336.34;5008955;28;20044;-77
2023/03/31 10:32:11;;;;;;;8.95;2.38;;;;;;;12.20;75.60;99333.59;4961457;28;20045;-77
2023/03/31 10:34:41;;;;;;;10.57;2.47;;;;;;;12.16;76.87;99327.59;4973321;28;20120;-78
2023/03/31 10:37:09;;;;;;;9.60;2.67;;;;;;;12.16;74.88;99332.00;4976586;28;20048;-77
2023/03/31 10:39:35;;;;;;;12.43;2.65;;;;;;;12.18;75.49;99323.13;4961133;28;20329;-78
2023/03/31 10:42:01;;;;;;;8.77;2.22;;;;;;;12.30;75.10;99325.22;4965171;28;20034;-78
2023/03/31 10:44:37;;;;;;;10.23;2.17;;;;;;;12.40;75.67;99328.31;4975890;28;20497;-78
2023/03/31 10:47:12;;;;;;;11.77;2.85;;;;;;;12.47;74.52;99314.00;4958665;28;20097;-76
2023/03/31 10:49:41;;;;;;;9.23;2.22;;;;;;;12.48;75.20;99323.59;4992791;28;20038;-78
2023/03/31 10:52:21;;;;;;;10.35;2.55;;;;;;;12.50;76.07;99315.63;4976311;28;20069;-77
2023/03/31 10:54:50;;;;;;;11.10;2.72;;;;;;;12.43;76.51;99317.69;4992638;28;20042;-77
2023/03/31 10:57:17;;;;;;;10.15;2.17;;;;;;;12.37;74.24;99315.31;5002489;28;20394;-77
2023/03/31 11:00:03;;;;;;;10.98;2.20;;;;;;;12.34;76.20;99312.84;4976344;28;20038;-77
2023/03/31 11:02:38;;;;;;;13.57;2.92;;;;;;;12.33;75.20;99297.16;4976483;28;20030;-76
2023/03/31 11:05:42;;;;;;;12.43;2.70;;;;;;;12.42;75.06;99300.19;4976318;28;20430;-78
2023/03/31 11:08:26;;;;;;;12.77;2.75;;;;;;;12.48;74.84;99301.69;4976319;28;20038;-77
2023/03/31 11:11:12;;;;;;;12.05;2.28;;;;;;;12.50;73.48;99299.88;4989153;28;20402;-77
2023/03/31 11:13:51;;;;;;;9.95;2.55;;;;;;;12.55;74.27;99300.50;5011941;28;20038;-77
2023/03/31 11:16:35;;;;;;;11.50;2.50;;;;;;;12.50;73.27;99293.75;4995524;28;20030;-78
2023/03/31 11:19:06;;;;;;;12.48;2.45;;;;;;;12.41;74.30;99300.28;5012000;28;20041;-77
2023/03/31 11:21:56;;;;;;;13.65;3.15;;;;;;;12.32;75.38;99298.91;5011844;28;20548;-78
2023/03/31 11:24:34;;;;;;;9.60;2.78;;;;;;;12.19;75.83;99295.94;4986492;28;20042;-78
2023/03/31 11:27:14;;;;;;;11.85;2.45;;;;;;;12.13;76.80;99298.84;4976174;28;20034;-78
2023/03/31 11:29:46;;;;;;;;;;;;;;;12.19;77.35;99295.94;5009160;28;20070;-77
2023/03/31 11:32:32;;;;;;;12.48;2.65;;;;;;;12.06;77.39;99285.13;4976163;28;19936;-77
2023/03/31 11:35:34;;;;;;;15.52;3.47;;;;;;;12.16;78.63;99290.84;4993525;28;20041;-77
2023/03/31 11:38:27;;;;;;;15.38;2.80;;;;;;;12.18;78.60;99283.72;4975878;28;20096;-78
2023/03/31 11:41:17;;;;;;;13.50;3.05;;;;;;;12.29;77.66;99286.75;4975448;28;20039;-76
2023/03/31 11:43:59;;;;;;;14.27;3.22;;;;;;;12.35;77.31;99275.13;4976006;28;20517;-77
2023/03/31 11:46:51;;;;;;;16.40;3.30;;;;;;;12.36;75.08;99266.31;4975961;28;20034;-77
2023/03/31 11:49:21;;;;;;;14.13;2.88;;;;;;;12.39;74.56;99265.34;4970528;28;20038;-77
2023/03/31 11:51:58;;;;;;;12.88;2.67;;;;;;;12.45;76.04;99268.53;4975793;28;20112;-78
2023/03/31 11:54:35;;;;;;;15.25;2.97;;;;;;;12.41;73.88;99256.47;4975880;28;20397;-78
2023/03/31 11:57:09;;;;;;;11.70;2.60;;;;;;;12.36;73.76;99261.06;4995909;28;20069;-77
2023/03/31 11:59:36;;;;;;;15.35;2.72;;;;;;;12.36;74.13;99263.69;4995815;28;20077;-79
2023/03/31 12:02:09;;;;;;;15.98;2.67;;;;;;;12.40;73.65;99262.66;4995828;28;20453;-77
2023/03/31 12:04:38;;;;;;;13.05;2.80;;;;;;;12.43;71.91;99257.25;5006043;28;20490;-78
2023/03/31 12:07:11;;;;;;;11.80;2.72;;;;;;;12.57;72.21;99251.38;5000321;28;20049;-77
2023/03/31 12:09:48;;;;;;;13.10;3.33;;;;;;;12.68;70.80;99242.16;4979329;28;20054;-77
2023/03/31 12:12:28;;;;;;;11.52;2.30;;;;;;;12.80;70.61;99237.19;4978946;28;20046;-76
2023/03/31 12:15:11;;;;;;;7.68;1.80;;;;;;;12.94;71.45;99226.03;4979310;28;20034;-77
2023/03/31 12:17:40;;;;;;;10.02;2.22;;;;;;;12.97;68.70;99232.91;4979672;28;20164;-78
2023/03/31 12:20:17;;;;;;;11.13;2.30;;;;;;;13.04;70.25;99230.84;4979364;28;20038;-79
2023/03/31 12:22:45;;;;;;;11.18;2.22;;;;;;;13.01;69.00;99226.56;4979152;28;20045;-77
2023/03/31 12:25:16;;;;;;;8.57;2.55;;;;;;;13.00;67.78;99230.13;4979189;28;20038;-78
2023/03/31 12:27:46;;;;;;;10.10;1.95;;;;;;;13.00;69.05;99228.34;5354090;23;20046;-77
2023/03/31 12:56:21;;;;;;;9.07;1.98;;;;;;;13.23;64.76;99186.09;3698958;23;20978;-74
2023/03/31 13:45:25;;;;;;;7.18;1.25;;;;;;;12.56;70.04;99172.63;5237952;22;20053;-69
2023/03/31 13:47:52;;;;;;;5.78;1.27;;;;;;;12.56;71.54;99162.97;5013847;28;20140;-69
2023/03/31 13:50:55;;;;;;;6.85;1.33;;;;;;;12.56;71.40;99175.25;4996439;28;20077;-69
2023/03/31 13:53:41;;;;;;;6.25;1.50;;;;;;;12.46;72.76;99175.66;5024086;28;20473;-69
2023/03/31 13:56:22;;;;;;;6.65;1.63;;;;;;;12.41;72.90;99177.69;5016541;28;20041;-69
2023/03/31 13:59:10;;;;;;;6.88;1.30;;;;;;;12.48;73.03;99176.47;5016088;28;20481;-70
2023/03/31 14:02:05;;;;;;;6.65;1.08;;;;;;;12.41;73.46;99182.94;5016038;28;20045;-69
2023/03/31 14:05:00;;;;;;;7.35;1.35;;;;;;;12.33;73.24;99166.66;5001577;28;20045;-69
2023/03/31 14:07:37;;;;;;;7.50;1.50;;;;;;;12.20;75.19;99170.78;5015982;28;20099;-70
2023/03/31 14:10:05;;;;;;;6.95;1.45;;;;;;;11.97;74.43;99162.16;5011217;28;20046;-69
2023/03/31 14:12:34;;;;;;;5.57;1.40;;;;;;;11.77;75.56;99169.09;4991070;28;20037;-69
2023/03/31 14:15:00;;;;;;;8.02;1.40;;;;;;;11.66;77.27;99171.31;5015699;28;20069;-69
2023/03/31 14:17:28;;;;;;;6.43;1.60;;;;;;;11.54;78.31;99166.59;5007200;28;20083;-69
2023/03/31 14:20:18;;;;;;;5.80;1.40;;;;;;;11.45;79.53;99157.38;5017053;28;20033;-69
2023/03/31 14:23:02;;;;;;;8.40;1.60;;;;;;;11.40;79.71;99161.94;5032973;28;20029;-69
2023/03/31 14:26:07;;;;;;;6.35;1.17;;;;;;;11.42;80.35;99155.72;5015716;28;20401;-69
2023/03/31 14:28:57;;;;;;;9.32;1.70;;;;;;;11.48;79.84;99151.09;5007521;28;20033;-69
2023/03/31 14:31:29;;;;;;;9.98;1.30;;;;;;;11.46;79.48;99159.03;5015785;28;20434;-69
2023/03/31 14:34:11;;;;;;;10.50;1.80;;;;;;;11.46;80.27;99150.34;5012179;28;20037;-70
2023/03/31 14:36:59;;;;;;;7.57;1.85;;;;;;;11.50;79.94;99146.66;5013148;28;20071;-70
2023/03/31 14:39:32;;;;;;;7.50;1.70;;;;;;;11.55;80.15;99147.31;5015179;28;20459;-69
2023/03/31 14:42:05;;;;;;;5.35;1.20;;;;;;;11.51;79.90;99143.97;5015164;28;20128;-69
2023/03/31 14:44:33;;;;;;;4.20;1.35;;;;;;;11.53;79.30;99144.75;5015181;28;20072;-69